createdAt,value
2023-03-26T05:04:57.112Z,10.85
2023-03-26T05:07:47.991Z,11.54
2023-03-26T05:10:37.781Z,11.51
2023-03-26T05:13:10.454Z,10.84
2023-03-26T05:15:40.965Z,10.45
2023-03-26T05:18:23.739Z,10.66
2023-03-26T05:20:53.882Z,10.59
2023-03-26T05:23:20.931Z,10.91
2023-03-26T05:25:53.654Z,10.48
2023-03-26T05:28:25.407Z,10.34
2023-03-26T05:31:02.684Z,10.37
2023-03-26T05:33:34.571Z,10.14
2023-03-26T05:36:15.843Z,10.16
2023-03-26T05:38:49.333Z,10.11
2023-03-26T05:41:38.670Z,10.18
2023-03-26T05:44:05.475Z,9.91
2023-03-26T05:46:32.274Z,9.98
2023-03-26T05:49:00.262Z,10.16
2023-03-26T05:51:30.948Z,10.17
2023-03-26T05:54:12.983Z,10.17
2023-03-26T05:57:18.669Z,10.37
2023-03-26T06:00:18.446Z,10.43
2023-03-26T06:02:46.653Z,10.74
2023-03-26T06:05:42.981Z,11.46
2023-03-26T06:08:37.678Z,11.39
2023-03-26T06:11:07.886Z,11.57
2023-03-26T06:13:39.433Z,12.18
2023-03-26T06:16:07.557Z,11.94
2023-03-26T06:18:37.144Z,11.77
2023-03-26T06:21:22.624Z,12.41
2023-03-26T06:24:00.333Z,12.26
2023-03-26T06:26:36.251Z,13.09
2023-03-26T06:29:16.946Z,13.21
2023-03-26T06:32:19.159Z,13.01
2023-03-26T06:35:01.550Z,12.50
2023-03-26T06:37:28.143Z,12.89
2023-03-26T06:39:59.780Z,13.24
2023-03-26T06:43:08.625Z,13.10
2023-03-26T06:46:09.810Z,13.64
2023-03-26T06:48:55.053Z,12.93
2023-03-26T06:51:27.530Z,13.28
2023-03-26T06:54:13.385Z,13.87
2023-03-26T06:57:01.505Z,13.93
2023-03-26T06:59:36.731Z,14.21
2023-03-26T07:02:21.734Z,13.22
2023-03-26T07:05:08.120Z,13.11
2023-03-26T07:08:13.791Z,13.65
2023-03-26T07:10:58.597Z,13.85
2023-03-26T07:13:44.918Z,13.56
2023-03-26T07:16:33.152Z,13.34
2023-03-26T07:19:18.758Z,13.32
2023-03-26T07:21:46.732Z,13.29
2023-03-26T07:24:43.340Z,13.21
2023-03-26T07:27:37.750Z,13.27
2023-03-26T07:30:24.441Z,13.99
2023-03-26T07:33:34.853Z,13.85
2023-03-26T07:36:43.525Z,13.27
2023-03-26T07:39:40.936Z,13.32
2023-03-26T07:42:57.946Z,12.96
2023-03-26T07:45:47.519Z,13.07
2023-03-26T07:48:43.098Z,13.31
2023-03-26T07:51:28.889Z,13.25
2023-03-26T07:54:31.045Z,13.40
2023-03-26T07:58:21.119Z,13.52
2023-03-26T08:01:18.020Z,13.47
2023-03-26T08:03:53.812Z,14.04
2023-03-26T08:06:53.058Z,13.38
2023-03-26T08:10:16.142Z,13.96
2023-03-26T08:13:16.113Z,13.55
2023-03-26T08:15:53.957Z,13.77
2023-03-26T08:18:45.461Z,13.28
2023-03-26T08:21:18.314Z,12.62
2023-03-26T08:23:55.563Z,12.32
2023-03-26T08:26:41.408Z,12.72
2023-03-26T08:29:13.866Z,12.40
2023-03-26T08:31:43.577Z,12.21
2023-03-26T08:34:12.022Z,14.40
2023-03-26T08:36:39.126Z,14.33
2023-03-26T08:39:05.970Z,13.17
2023-03-26T08:41:47.948Z,14.16
2023-03-26T08:44:48.889Z,14.75
2023-03-26T08:47:31.268Z,13.91
2023-03-26T08:50:31.896Z,13.80
2023-03-26T08:53:29.134Z,12.87
2023-03-26T08:56:16.771Z,12.50
2023-03-26T08:58:57.368Z,13.19
2023-03-26T09:01:56.429Z,11.97
2023-03-26T09:04:38.212Z,12.80
2023-03-26T09:07:41.572Z,13.33
2023-03-26T09:10:15.724Z,13.55
2023-03-26T09:13:10.648Z,13.54
2023-03-26T09:15:46.919Z,13.51
2023-03-26T09:18:25.681Z,12.26
2023-03-26T09:21:29.867Z,12.48
2023-03-26T09:24:10.818Z,12.08
2023-03-26T09:27:04.298Z,12.49
2023-03-26T09:29:32.828Z,12.11
